sensor_id;sensor_type;location;lat;lon;timestamp;P1;durP1;ratioP1;P2;durP2;ratioP2
59038;SDS011;44824;43.376;19.630;2023-01-20T00:00:35;16.13;;;11.30;;
59038;SDS011;44824;43.376;19.630;2023-01-20T00:03:01;11.05;;;6.30;;
59038;SDS011;44824;43.376;19.630;2023-01-20T00:05:27;13.88;;;7.07;;
59038;SDS011;44824;43.376;19.630;2023-01-20T00:07:53;13.35;;;5.45;;
59038;SDS011;44824;43.376;19.630;2023-01-20T00:10:21;10.18;;;4.88;;
59038;SDS011;44824;43.376;19.630;2023-01-20T00:12:47;12.27;;;5.75;;
59038;SDS011;44824;43.376;19.630;2023-01-20T00:21:21;9.85;;;4.60;;
59038;SDS011;44824;43.376;19.630;2023-01-20T00:23:56;9.32;;;5.00;;
59038;SDS011;44824;43.376;19.630;2023-01-20T00:26:22;8.70;;;4.72;;
59038;SDS011;44824;43.376;19.630;2023-01-20T00:28:51;8.90;;;4.18;;
59038;SDS011;44824;43.376;19.630;2023-01-20T00:34:21;9.05;;;4.15;;
59038;SDS011;44824;43.376;19.630;2023-01-20T00:36:59;9.20;;;4.80;;
59038;SDS011;44824;43.376;19.630;2023-01-20T00:39:25;10.63;;;4.47;;
59038;SDS011;44824;43.376;19.630;2023-01-20T00:42:09;9.85;;;4.68;;
59038;SDS011;44824;43.376;19.630;2023-01-20T00:44:35;9.48;;;3.10;;
59038;SDS011;44824;43.376;19.630;2023-01-20T00:50:05;10.88;;;5.35;;
59038;SDS011;44824;43.376;19.630;2023-01-20T00:52:31;9.48;;;4.93;;
59038;SDS011;44824;43.376;19.630;2023-01-20T00:54:57;10.57;;;4.68;;
59038;SDS011;44824;43.376;19.630;2023-01-20T00:57:23;10.30;;;5.03;;
59038;SDS011;44824;43.376;19.630;2023-01-20T00:59:58;10.43;;;5.30;;
59038;SDS011;44824;43.376;19.630;2023-01-20T01:05:12;18.38;;;8.25;;
59038;SDS011;44824;43.376;19.630;2023-01-20T01:07:38;16.33;;;6.45;;
59038;SDS011;44824;43.376;19.630;2023-01-20T01:10:05;13.15;;;5.85;;
59038;SDS011;44824;43.376;19.630;2023-01-20T01:12:31;11.63;;;5.77;;
59038;SDS011;44824;43.376;19.630;2023-01-20T01:14:57;13.10;;;6.38;;
59038;SDS011;44824;43.376;19.630;2023-01-20T01:20:27;29.38;;;20.48;;
59038;SDS011;44824;43.376;19.630;2023-01-20T01:22:54;17.30;;;8.95;;
59038;SDS011;44824;43.376;19.630;2023-01-20T01:25:20;16.02;;;7.22;;
59038;SDS011;44824;43.376;19.630;2023-01-20T01:27:46;23.52;;;16.83;;
59038;SDS011;44824;43.376;19.630;2023-01-20T01:30:12;25.35;;;16.67;;
59038;SDS011;44824;43.376;19.630;2023-01-20T01:32:51;20.65;;;13.73;;
59038;SDS011;44824;43.376;19.630;2023-01-20T01:35:17;15.75;;;10.45;;
59038;SDS011;44824;43.376;19.630;2023-01-20T01:37:43;11.70;;;5.40;;
59038;SDS011;44824;43.376;19.630;2023-01-20T01:40:18;7.70;;;3.67;;
59038;SDS011;44824;43.376;19.630;2023-01-20T01:42:49;5.88;;;2.25;;
59038;SDS011;44824;43.376;19.630;2023-01-20T01:45:19;6.47;;;2.30;;
59038;SDS011;44824;43.376;19.630;2023-01-20T01:52:59;5.93;;;1.52;;
59038;SDS011;44824;43.376;19.630;2023-01-20T01:55:26;4.50;;;1.40;;
59038;SDS011;44824;43.376;19.630;2023-01-20T01:57:54;4.40;;;1.35;;
59038;SDS011;44824;43.376;19.630;2023-01-20T02:00:21;6.63;;;1.80;;
59038;SDS011;44824;43.376;19.630;2023-01-20T02:03:00;3.85;;;1.20;;
59038;SDS011;44824;43.376;19.630;2023-01-20T02:05:30;4.82;;;1.60;;
59038;SDS011;44824;43.376;19.630;2023-01-20T02:07:56;3.58;;;1.10;;
59038;SDS011;44824;43.376;19.630;2023-01-20T02:10:23;3.15;;;0.98;;
59038;SDS011;44824;43.376;19.630;2023-01-20T02:12:49;2.95;;;0.80;;
59038;SDS011;44824;43.376;19.630;2023-01-20T02:15:17;1.75;;;0.70;;
59038;SDS011;44824;43.376;19.630;2023-01-20T02:21:07;2.17;;;0.90;;
59038;SDS011;44824;43.376;19.630;2023-01-20T02:37:39;3.80;;;1.30;;
59038;SDS011;44824;43.376;19.630;2023-01-20T02:42:56;4.95;;;2.03;;
59038;SDS011;44824;43.376;19.630;2023-01-20T02:45:55;5.40;;;1.52;;
59038;SDS011;44824;43.376;19.630;2023-01-20T02:51:29;12.18;;;5.45;;
59038;SDS011;44824;43.376;19.630;2023-01-20T02:53:58;8.05;;;3.50;;
59038;SDS011;44824;43.376;19.630;2023-01-20T02:56:25;6.97;;;3.15;;
59038;SDS011;44824;43.376;19.630;2023-01-20T02:58:55;6.53;;;2.80;;
59038;SDS011;44824;43.376;19.630;2023-01-20T03:01:23;7.50;;;2.95;;
59038;SDS011;44824;43.376;19.630;2023-01-20T03:03:50;7.85;;;3.33;;
59038;SDS011;44824;43.376;19.630;2023-01-20T03:06:19;16.45;;;7.95;;
59038;SDS011;44824;43.376;19.630;2023-01-20T03:08:54;19.15;;;9.57;;
59038;SDS011;44824;43.376;19.630;2023-01-20T03:13:56;26.40;;;12.30;;
59038;SDS011;44824;43.376;19.630;2023-01-20T03:16:23;29.65;;;15.38;;
59038;SDS011;44824;43.376;19.630;2023-01-20T03:21:53;14.15;;;7.40;;
59038;SDS011;44824;43.376;19.630;2023-01-20T03:24:31;10.75;;;3.97;;
59038;SDS011;44824;43.376;19.630;2023-01-20T03:26:58;5.95;;;2.50;;
59038;SDS011;44824;43.376;19.630;2023-01-20T03:29:24;4.88;;;1.13;;
59038;SDS011;44824;43.376;19.630;2023-01-20T03:31:51;2.15;;;0.60;;
59038;SDS011;44824;43.376;19.630;2023-01-20T03:34:20;2.10;;;0.60;;
59038;SDS011;44824;43.376;19.630;2023-01-20T03:36:49;1.73;;;0.55;;
59038;SDS011;44824;43.376;19.630;2023-01-20T03:39:16;1.52;;;0.60;;
59038;SDS011;44824;43.376;19.630;2023-01-20T03:44:22;1.15;;;0.50;;
59038;SDS011;44824;43.376;19.630;2023-01-20T03:46:52;1.40;;;0.60;;
59038;SDS011;44824;43.376;19.630;2023-01-20T03:54:30;2.35;;;0.70;;
59038;SDS011;44824;43.376;19.630;2023-01-20T03:57:11;2.67;;;0.73;;
59038;SDS011;44824;43.376;19.630;2023-01-20T03:59:39;1.85;;;0.65;;
59038;SDS011;44824;43.376;19.630;2023-01-20T04:02:07;2.88;;;0.73;;
59038;SDS011;44824;43.376;19.630;2023-01-20T04:04:33;2.92;;;0.70;;
59038;SDS011;44824;43.376;19.630;2023-01-20T04:07:00;2.75;;;0.60;;
59038;SDS011;44824;43.376;19.630;2023-01-20T04:09:29;4.63;;;0.90;;
59038;SDS011;44824;43.376;19.630;2023-01-20T04:11:56;1.00;;;0.50;;
59038;SDS011;44824;43.376;19.630;2023-01-20T04:14:23;1.85;;;0.60;;
59038;SDS011;44824;43.376;19.630;2023-01-20T04:16:53;1.35;;;0.40;;
59038;SDS011;44824;43.376;19.630;2023-01-20T04:19:20;1.75;;;0.60;;
59038;SDS011;44824;43.376;19.630;2023-01-20T04:24:26;1.42;;;0.57;;
59038;SDS011;44824;43.376;19.630;2023-01-20T04:26:53;1.00;;;0.50;;
59038;SDS011;44824;43.376;19.630;2023-01-20T04:29:19;1.67;;;0.60;;
59038;SDS011;44824;43.376;19.630;2023-01-20T04:31:48;1.58;;;0.63;;
59038;SDS011;44824;43.376;19.630;2023-01-20T04:34:14;1.13;;;0.52;;
59038;SDS011;44824;43.376;19.630;2023-01-20T04:36:41;1.90;;;0.60;;
59038;SDS011;44824;43.376;19.630;2023-01-20T04:41:51;1.83;;;0.60;;
59038;SDS011;44824;43.376;19.630;2023-01-20T04:44:17;1.63;;;0.52;;
59038;SDS011;44824;43.376;19.630;2023-01-20T04:46:45;1.75;;;0.60;;
59038;SDS011;44824;43.376;19.630;2023-01-20T04:49:17;1.35;;;0.50;;
59038;SDS011;44824;43.376;19.630;2023-01-20T04:51:43;1.27;;;0.50;;
59038;SDS011;44824;43.376;19.630;2023-01-20T04:54:09;1.63;;;0.50;;
59038;SDS011;44824;43.376;19.630;2023-01-20T04:56:35;1.42;;;0.60;;
59038;SDS011;44824;43.376;19.630;2023-01-20T04:59:02;2.25;;;0.60;;
59038;SDS011;44824;43.376;19.630;2023-01-20T05:01:28;1.65;;;0.60;;
59038;SDS011;44824;43.376;19.630;2023-01-20T05:03:54;2.20;;;0.70;;
59038;SDS011;44824;43.376;19.630;2023-01-20T05:06:20;2.00;;;0.60;;
59038;SDS011;44824;43.376;19.630;2023-01-20T05:08:46;1.48;;;0.60;;
59038;SDS011;44824;43.376;19.630;2023-01-20T05:11:12;2.80;;;0.70;;
59038;SDS011;44824;43.376;19.630;2023-01-20T05:13:38;2.83;;;0.80;;
59038;SDS011;44824;43.376;19.630;2023-01-20T05:16:05;1.63;;;0.60;;
59038;SDS011;44824;43.376;19.630;2023-01-20T05:18:32;2.28;;;0.85;;
59038;SDS011;44824;43.376;19.630;2023-01-20T05:20:58;2.63;;;0.80;;
59038;SDS011;44824;43.376;19.630;2023-01-20T05:23:24;1.45;;;0.60;;
59038;SDS011;44824;43.376;19.630;2023-01-20T05:25:50;1.42;;;0.60;;
59038;SDS011;44824;43.376;19.630;2023-01-20T05:28:16;2.10;;;0.70;;
59038;SDS011;44824;43.376;19.630;2023-01-20T05:30:42;1.75;;;0.68;;
59038;SDS011;44824;43.376;19.630;2023-01-20T05:33:24;1.92;;;0.70;;
59038;SDS011;44824;43.376;19.630;2023-01-20T05:35:53;2.33;;;0.70;;
59038;SDS011;44824;43.376;19.630;2023-01-20T05:38:19;1.90;;;0.60;;
59038;SDS011;44824;43.376;19.630;2023-01-20T05:40:45;2.00;;;0.70;;
59038;SDS011;44824;43.376;19.630;2023-01-20T05:43:11;2.03;;;0.68;;
59038;SDS011;44824;43.376;19.630;2023-01-20T05:45:38;2.33;;;0.70;;
59038;SDS011;44824;43.376;19.630;2023-01-20T05:48:04;2.97;;;0.98;;
59038;SDS011;44824;43.376;19.630;2023-01-20T05:50:36;3.67;;;1.07;;
59038;SDS011;44824;43.376;19.630;2023-01-20T05:53:02;11.38;;;5.60;;
59038;SDS011;44824;43.376;19.630;2023-01-20T05:55:28;11.00;;;5.65;;
59038;SDS011;44824;43.376;19.630;2023-01-20T05:57:59;14.63;;;8.02;;
59038;SDS011;44824;43.376;19.630;2023-01-20T06:00:38;14.73;;;7.90;;
59038;SDS011;44824;43.376;19.630;2023-01-20T06:09:11;15.98;;;7.80;;
59038;SDS011;44824;43.376;19.630;2023-01-20T06:11:37;19.95;;;7.25;;
59038;SDS011;44824;43.376;19.630;2023-01-20T06:14:24;24.52;;;16.27;;
59038;SDS011;44824;43.376;19.630;2023-01-20T06:16:50;8.57;;;4.97;;
59038;SDS011;44824;43.376;19.630;2023-01-20T06:19:16;7.47;;;3.95;;
59038;SDS011;44824;43.376;19.630;2023-01-20T06:21:42;6.60;;;3.20;;
59038;SDS011;44824;43.376;19.630;2023-01-20T06:24:08;6.68;;;2.53;;
59038;SDS011;44824;43.376;19.630;2023-01-20T06:26:34;6.93;;;2.50;;
59038;SDS011;44824;43.376;19.630;2023-01-20T06:29:00;7.80;;;4.28;;
59038;SDS011;44824;43.376;19.630;2023-01-20T06:31:26;5.47;;;2.33;;
59038;SDS011;44824;43.376;19.630;2023-01-20T06:39:47;5.38;;;2.00;;
59038;SDS011;44824;43.376;19.630;2023-01-20T06:42:13;9.00;;;2.90;;
59038;SDS011;44824;43.376;19.630;2023-01-20T06:44:39;6.78;;;2.67;;
59038;SDS011;44824;43.376;19.630;2023-01-20T06:47:05;6.35;;;2.35;;
59038;SDS011;44824;43.376;19.630;2023-01-20T06:49:45;5.72;;;2.40;;
59038;SDS011;44824;43.376;19.630;2023-01-20T06:55:28;8.18;;;2.83;;
59038;SDS011;44824;43.376;19.630;2023-01-20T06:57:56;10.57;;;4.57;;
59038;SDS011;44824;43.376;19.630;2023-01-20T07:00:40;10.25;;;5.38;;
59038;SDS011;44824;43.376;19.630;2023-01-20T07:08:21;6.70;;;2.60;;
59038;SDS011;44824;43.376;19.630;2023-01-20T07:11:02;10.43;;;5.30;;
59038;SDS011;44824;43.376;19.630;2023-01-20T07:13:35;11.75;;;6.40;;
59038;SDS011;44824;43.376;19.630;2023-01-20T07:16:04;5.30;;;2.10;;
59038;SDS011;44824;43.376;19.630;2023-01-20T07:39:28;4.95;;;2.08;;
59038;SDS011;44824;43.376;19.630;2023-01-20T07:41:54;10.13;;;6.65;;
59038;SDS011;44824;43.376;19.630;2023-01-20T07:44:20;10.23;;;6.43;;
59038;SDS011;44824;43.376;19.630;2023-01-20T07:52:07;10.45;;;5.95;;
59038;SDS011;44824;43.376;19.630;2023-01-20T07:54:33;10.07;;;5.82;;
59038;SDS011;44824;43.376;19.630;2023-01-20T07:57:25;8.15;;;4.38;;
59038;SDS011;44824;43.376;19.630;2023-01-20T07:59:51;9.88;;;5.45;;
59038;SDS011;44824;43.376;19.630;2023-01-20T08:02:23;5.90;;;2.95;;
59038;SDS011;44824;43.376;19.630;2023-01-20T08:07:55;6.13;;;3.50;;
59038;SDS011;44824;43.376;19.630;2023-01-20T08:13:50;9.05;;;4.47;;
59038;SDS011;44824;43.376;19.630;2023-01-20T08:28:33;7.32;;;4.22;;
59038;SDS011;44824;43.376;19.630;2023-01-20T08:36:58;7.13;;;3.65;;
59038;SDS011;44824;43.376;19.630;2023-01-20T08:40:04;9.93;;;5.18;;
59038;SDS011;44824;43.376;19.630;2023-01-20T08:42:36;8.80;;;4.13;;
59038;SDS011;44824;43.376;19.630;2023-01-20T08:48:30;6.35;;;3.05;;
59038;SDS011;44824;43.376;19.630;2023-01-20T11:26:18;8.13;;;5.20;;
59038;SDS011;44824;43.376;19.630;2023-01-20T11:31:54;7.68;;;4.88;;
59038;SDS011;44824;43.376;19.630;2023-01-20T11:34:40;7.50;;;2.92;;
59038;SDS011;44824;43.376;19.630;2023-01-20T11:37:29;6.07;;;3.13;;
59038;SDS011;44824;43.376;19.630;2023-01-20T11:40:27;4.90;;;2.00;;
59038;SDS011;44824;43.376;19.630;2023-01-20T11:43:03;5.43;;;2.30;;
59038;SDS011;44824;43.376;19.630;2023-01-20T11:45:50;5.43;;;2.13;;
59038;SDS011;44824;43.376;19.630;2023-01-20T11:51:20;5.97;;;2.38;;
59038;SDS011;44824;43.376;19.630;2023-01-20T11:54:07;12.57;;;4.72;;
59038;SDS011;44824;43.376;19.630;2023-01-20T11:57:10;6.05;;;3.28;;
59038;SDS011;44824;43.376;19.630;2023-01-20T12:00:26;8.85;;;3.50;;
59038;SDS011;44824;43.376;19.630;2023-01-20T12:15:36;7.03;;;3.72;;
59038;SDS011;44824;43.376;19.630;2023-01-20T12:21:11;10.05;;;5.95;;
59038;SDS011;44824;43.376;19.630;2023-01-20T12:26:34;7.00;;;3.30;;
59038;SDS011;44824;43.376;19.630;2023-01-20T12:31:38;7.90;;;4.45;;
59038;SDS011;44824;43.376;19.630;2023-01-20T12:34:14;12.07;;;8.18;;
59038;SDS011;44824;43.376;19.630;2023-01-20T12:36:55;9.50;;;6.10;;
59038;SDS011;44824;43.376;19.630;2023-01-20T12:53:32;10.07;;;5.15;;
59038;SDS011;44824;43.376;19.630;2023-01-20T12:56:20;4.60;;;1.80;;
59038;SDS011;44824;43.376;19.630;2023-01-20T12:59:00;19.20;;;11.10;;
59038;SDS011;44824;43.376;19.630;2023-01-20T13:15:20;12.45;;;6.90;;
59038;SDS011;44824;43.376;19.630;2023-01-20T13:18:11;9.85;;;5.15;;
59038;SDS011;44824;43.376;19.630;2023-01-20T13:20:44;10.25;;;5.45;;
59038;SDS011;44824;43.376;19.630;2023-01-20T13:23:14;8.57;;;4.80;;
59038;SDS011;44824;43.376;19.630;2023-01-20T13:25:41;9.38;;;5.38;;
59038;SDS011;44824;43.376;19.630;2023-01-20T13:28:12;8.25;;;4.53;;
59038;SDS011;44824;43.376;19.630;2023-01-20T13:30:46;5.93;;;2.95;;
59038;SDS011;44824;43.376;19.630;2023-01-20T13:36:22;9.88;;;5.78;;
59038;SDS011;44824;43.376;19.630;2023-01-20T13:41:45;8.75;;;3.65;;
59038;SDS011;44824;43.376;19.630;2023-01-20T13:46:50;5.63;;;2.67;;
59038;SDS011;44824;43.376;19.630;2023-01-20T13:52:14;9.15;;;3.70;;
59038;SDS011;44824;43.376;19.630;2023-01-20T13:54:43;6.50;;;3.13;;
59038;SDS011;44824;43.376;19.630;2023-01-20T13:59:35;9.27;;;5.25;;
59038;SDS011;44824;43.376;19.630;2023-01-20T14:02:14;8.05;;;4.20;;
59038;SDS011;44824;43.376;19.630;2023-01-20T14:04:44;7.93;;;3.55;;
59038;SDS011;44824;43.376;19.630;2023-01-20T14:07:26;7.18;;;3.85;;
59038;SDS011;44824;43.376;19.630;2023-01-20T14:09:54;11.20;;;6.60;;
59038;SDS011;44824;43.376;19.630;2023-01-20T14:12:20;8.70;;;4.18;;
59038;SDS011;44824;43.376;19.630;2023-01-20T14:14:46;7.70;;;4.20;;
59038;SDS011;44824;43.376;19.630;2023-01-20T14:19:40;26.83;;;13.23;;
59038;SDS011;44824;43.376;19.630;2023-01-20T14:22:18;9.45;;;5.32;;
59038;SDS011;44824;43.376;19.630;2023-01-20T14:24:49;6.97;;;3.47;;
59038;SDS011;44824;43.376;19.630;2023-01-20T14:27:35;9.00;;;4.80;;
59038;SDS011;44824;43.376;19.630;2023-01-20T14:32:41;19.27;;;15.25;;
59038;SDS011;44824;43.376;19.630;2023-01-20T14:35:22;8.77;;;6.63;;
59038;SDS011;44824;43.376;19.630;2023-01-20T14:37:51;33.47;;;20.48;;
59038;SDS011;44824;43.376;19.630;2023-01-20T14:40:22;15.13;;;10.30;;
59038;SDS011;44824;43.376;19.630;2023-01-20T14:45:21;9.55;;;7.00;;
59038;SDS011;44824;43.376;19.630;2023-01-20T14:47:48;14.10;;;7.90;;
59038;SDS011;44824;43.376;19.630;2023-01-20T14:53:12;23.88;;;18.83;;
59038;SDS011;44824;43.376;19.630;2023-01-20T14:55:39;17.13;;;13.00;;
59038;SDS011;44824;43.376;19.630;2023-01-20T14:58:08;16.60;;;12.15;;
59038;SDS011;44824;43.376;19.630;2023-01-20T15:00:41;14.18;;;10.95;;
59038;SDS011;44824;43.376;19.630;2023-01-20T15:21:45;12.57;;;6.82;;
59038;SDS011;44824;43.376;19.630;2023-01-20T15:24:12;13.63;;;8.88;;
59038;SDS011;44824;43.376;19.630;2023-01-20T15:26:40;15.35;;;10.63;;
59038;SDS011;44824;43.376;19.630;2023-01-20T15:31:55;8.48;;;5.10;;
59038;SDS011;44824;43.376;19.630;2023-01-20T15:36:51;12.35;;;8.48;;
59038;SDS011;44824;43.376;19.630;2023-01-20T15:39:21;12.43;;;8.50;;
59038;SDS011;44824;43.376;19.630;2023-01-20T15:44:13;8.98;;;5.25;;
59038;SDS011;44824;43.376;19.630;2023-01-20T15:46:41;10.00;;;6.13;;
59038;SDS011;44824;43.376;19.630;2023-01-20T15:52:09;17.20;;;8.95;;
59038;SDS011;44824;43.376;19.630;2023-01-20T15:54:46;37.80;;;30.80;;
59038;SDS011;44824;43.376;19.630;2023-01-20T15:57:24;23.20;;;16.45;;
59038;SDS011;44824;43.376;19.630;2023-01-20T15:59:59;14.55;;;10.25;;
59038;SDS011;44824;43.376;19.630;2023-01-20T16:02:41;14.55;;;8.82;;
59038;SDS011;44824;43.376;19.630;2023-01-20T16:05:11;14.82;;;9.07;;
59038;SDS011;44824;43.376;19.630;2023-01-20T16:07:43;16.35;;;13.60;;
59038;SDS011;44824;43.376;19.630;2023-01-20T16:10:21;16.42;;;12.07;;
59038;SDS011;44824;43.376;19.630;2023-01-20T16:15:53;11.70;;;7.78;;
59038;SDS011;44824;43.376;19.630;2023-01-20T16:18:42;8.05;;;4.47;;
59038;SDS011;44824;43.376;19.630;2023-01-20T16:21:24;8.85;;;5.05;;
59038;SDS011;44824;43.376;19.630;2023-01-20T16:23:50;7.15;;;3.22;;
59038;SDS011;44824;43.376;19.630;2023-01-20T16:26:20;7.82;;;4.32;;
59038;SDS011;44824;43.376;19.630;2023-01-20T16:28:50;11.65;;;7.07;;
59038;SDS011;44824;43.376;19.630;2023-01-20T16:31:16;15.07;;;8.88;;
59038;SDS011;44824;43.376;19.630;2023-01-20T16:33:42;13.05;;;8.27;;
59038;SDS011;44824;43.376;19.630;2023-01-20T16:39:15;17.80;;;11.70;;
59038;SDS011;44824;43.376;19.630;2023-01-20T16:41:41;11.85;;;8.02;;
59038;SDS011;44824;43.376;19.630;2023-01-20T16:44:11;7.95;;;3.90;;
59038;SDS011;44824;43.376;19.630;2023-01-20T16:46:37;9.98;;;5.10;;
59038;SDS011;44824;43.376;19.630;2023-01-20T16:49:03;7.13;;;3.78;;
59038;SDS011;44824;43.376;19.630;2023-01-20T16:51:33;7.03;;;4.00;;
59038;SDS011;44824;43.376;19.630;2023-01-20T16:53:59;8.05;;;4.38;;
59038;SDS011;44824;43.376;19.630;2023-01-20T16:56:26;10.15;;;5.50;;
59038;SDS011;44824;43.376;19.630;2023-01-20T16:59:12;18.75;;;10.18;;
59038;SDS011;44824;43.376;19.630;2023-01-20T17:01:38;9.40;;;5.00;;
59038;SDS011;44824;43.376;19.630;2023-01-20T17:04:05;10.30;;;5.43;;
59038;SDS011;44824;43.376;19.630;2023-01-20T17:09:35;12.57;;;7.85;;
59038;SDS011;44824;43.376;19.630;2023-01-20T17:12:01;8.38;;;4.93;;
59038;SDS011;44824;43.376;19.630;2023-01-20T17:14:27;11.23;;;4.88;;
59038;SDS011;44824;43.376;19.630;2023-01-20T17:16:55;8.25;;;5.07;;
59038;SDS011;44824;43.376;19.630;2023-01-20T17:22:14;7.82;;;4.47;;
59038;SDS011;44824;43.376;19.630;2023-01-20T17:24:41;8.27;;;4.32;;
59038;SDS011;44824;43.376;19.630;2023-01-20T17:27:07;8.73;;;5.35;;
59038;SDS011;44824;43.376;19.630;2023-01-20T17:29:33;10.05;;;6.40;;
59038;SDS011;44824;43.376;19.630;2023-01-20T17:31:59;12.02;;;7.30;;
59038;SDS011;44824;43.376;19.630;2023-01-20T17:34:25;11.20;;;6.68;;
59038;SDS011;44824;43.376;19.630;2023-01-20T17:40:12;9.05;;;5.18;;
59038;SDS011;44824;43.376;19.630;2023-01-20T17:42:41;7.88;;;4.45;;
59038;SDS011;44824;43.376;19.630;2023-01-20T17:45:08;7.38;;;4.15;;
59038;SDS011;44824;43.376;19.630;2023-01-20T17:47:34;13.98;;;9.15;;
59038;SDS011;44824;43.376;19.630;2023-01-20T17:50:12;13.38;;;7.65;;
59038;SDS011;44824;43.376;19.630;2023-01-20T17:55:04;18.33;;;11.20;;
59038;SDS011;44824;43.376;19.630;2023-01-20T17:57:30;11.52;;;7.47;;
59038;SDS011;44824;43.376;19.630;2023-01-20T17:59:56;11.90;;;8.25;;
59038;SDS011;44824;43.376;19.630;2023-01-20T18:02:22;13.65;;;9.38;;
59038;SDS011;44824;43.376;19.630;2023-01-20T18:04:48;10.07;;;5.20;;
59038;SDS011;44824;43.376;19.630;2023-01-20T18:10:11;14.05;;;7.95;;
59038;SDS011;44824;43.376;19.630;2023-01-20T18:12:37;11.05;;;6.53;;
59038;SDS011;44824;43.376;19.630;2023-01-20T18:15:10;15.65;;;7.57;;
59038;SDS011;44824;43.376;19.630;2023-01-20T18:17:36;20.63;;;13.82;;
59038;SDS011;44824;43.376;19.630;2023-01-20T18:20:11;12.15;;;7.85;;
59038;SDS011;44824;43.376;19.630;2023-01-20T18:22:38;16.38;;;10.10;;
59038;SDS011;44824;43.376;19.630;2023-01-20T18:25:08;10.00;;;6.15;;
59038;SDS011;44824;43.376;19.630;2023-01-20T18:27:53;10.95;;;5.45;;
59038;SDS011;44824;43.376;19.630;2023-01-20T18:30:19;10.65;;;7.07;;
59038;SDS011;44824;43.376;19.630;2023-01-20T18:32:51;17.88;;;11.30;;
59038;SDS011;44824;43.376;19.630;2023-01-20T18:35:32;11.90;;;7.50;;
59038;SDS011;44824;43.376;19.630;2023-01-20T18:38:00;12.32;;;8.57;;
59038;SDS011;44824;43.376;19.630;2023-01-20T18:40:26;14.90;;;9.82;;
59038;SDS011;44824;43.376;19.630;2023-01-20T18:45:55;9.68;;;6.10;;
59038;SDS011;44824;43.376;19.630;2023-01-20T18:48:21;9.82;;;7.00;;
59038;SDS011;44824;43.376;19.630;2023-01-20T18:50:49;8.57;;;5.43;;
59038;SDS011;44824;43.376;19.630;2023-01-20T18:53:15;9.75;;;5.53;;
59038;SDS011;44824;43.376;19.630;2023-01-20T18:55:51;9.70;;;6.30;;
59038;SDS011;44824;43.376;19.630;2023-01-20T18:58:17;10.57;;;5.82;;
59038;SDS011;44824;43.376;19.630;2023-01-20T19:00:43;8.45;;;5.18;;
59038;SDS011;44824;43.376;19.630;2023-01-20T19:03:09;9.57;;;5.80;;
59038;SDS011;44824;43.376;19.630;2023-01-20T19:05:35;10.27;;;6.57;;
59038;SDS011;44824;43.376;19.630;2023-01-20T19:08:01;9.23;;;5.82;;
59038;SDS011;44824;43.376;19.630;2023-01-20T19:10:27;10.30;;;6.88;;
59038;SDS011;44824;43.376;19.630;2023-01-20T19:12:53;9.85;;;5.78;;
59038;SDS011;44824;43.376;19.630;2023-01-20T19:15:32;23.60;;;15.95;;
59038;SDS011;44824;43.376;19.630;2023-01-20T19:17:58;45.78;;;31.17;;
59038;SDS011;44824;43.376;19.630;2023-01-20T19:20:24;20.15;;;14.60;;
59038;SDS011;44824;43.376;19.630;2023-01-20T19:22:50;11.93;;;6.40;;
59038;SDS011;44824;43.376;19.630;2023-01-20T19:25:16;9.20;;;5.68;;
59038;SDS011;44824;43.376;19.630;2023-01-20T19:27:42;9.88;;;6.22;;
59038;SDS011;44824;43.376;19.630;2023-01-20T19:30:08;8.50;;;5.25;;
59038;SDS011;44824;43.376;19.630;2023-01-20T19:32:37;9.17;;;5.70;;
59038;SDS011;44824;43.376;19.630;2023-01-20T19:35:07;12.73;;;7.93;;
59038;SDS011;44824;43.376;19.630;2023-01-20T19:40:21;10.45;;;6.70;;
59038;SDS011;44824;43.376;19.630;2023-01-20T19:42:47;21.98;;;10.23;;
59038;SDS011;44824;43.376;19.630;2023-01-20T19:45:16;9.77;;;6.15;;
59038;SDS011;44824;43.376;19.630;2023-01-20T19:47:48;16.65;;;10.20;;
59038;SDS011;44824;43.376;19.630;2023-01-20T19:50:14;10.35;;;6.03;;
59038;SDS011;44824;43.376;19.630;2023-01-20T19:55:44;8.95;;;5.80;;
59038;SDS011;44824;43.376;19.630;2023-01-20T19:58:11;9.00;;;5.32;;
59038;SDS011;44824;43.376;19.630;2023-01-20T20:00:37;9.50;;;5.78;;
59038;SDS011;44824;43.376;19.630;2023-01-20T20:03:03;10.70;;;6.63;;
59038;SDS011;44824;43.376;19.630;2023-01-20T20:05:34;13.98;;;9.07;;
59038;SDS011;44824;43.376;19.630;2023-01-20T20:11:04;11.85;;;7.80;;
59038;SDS011;44824;43.376;19.630;2023-01-20T20:13:34;13.95;;;9.18;;
59038;SDS011;44824;43.376;19.630;2023-01-20T20:16:01;10.48;;;7.40;;
59038;SDS011;44824;43.376;19.630;2023-01-20T20:23:58;11.40;;;7.10;;
59038;SDS011;44824;43.376;19.630;2023-01-20T20:26:25;12.38;;;7.65;;
59038;SDS011;44824;43.376;19.630;2023-01-20T20:31:22;10.32;;;6.07;;
59038;SDS011;44824;43.376;19.630;2023-01-20T20:33:52;10.43;;;6.28;;
59038;SDS011;44824;43.376;19.630;2023-01-20T20:42:16;10.13;;;6.15;;
59038;SDS011;44824;43.376;19.630;2023-01-20T20:44:43;10.13;;;6.10;;
59038;SDS011;44824;43.376;19.630;2023-01-20T20:47:09;11.27;;;7.90;;
59038;SDS011;44824;43.376;19.630;2023-01-20T20:49:35;11.15;;;7.07;;
59038;SDS011;44824;43.376;19.630;2023-01-20T20:52:13;10.15;;;6.90;;
59038;SDS011;44824;43.376;19.630;2023-01-20T20:54:39;8.98;;;6.13;;
59038;SDS011;44824;43.376;19.630;2023-01-20T20:57:08;10.05;;;6.53;;
59038;SDS011;44824;43.376;19.630;2023-01-20T20:59:34;11.48;;;7.53;;
59038;SDS011;44824;43.376;19.630;2023-01-20T21:02:14;11.07;;;6.35;;
59038;SDS011;44824;43.376;19.630;2023-01-20T21:04:40;11.50;;;7.30;;
59038;SDS011;44824;43.376;19.630;2023-01-20T21:07:12;11.88;;;7.55;;
59038;SDS011;44824;43.376;19.630;2023-01-20T21:09:39;11.77;;;7.13;;
59038;SDS011;44824;43.376;19.630;2023-01-20T21:12:05;10.95;;;6.50;;
59038;SDS011;44824;43.376;19.630;2023-01-20T21:14:37;11.98;;;7.85;;
59038;SDS011;44824;43.376;19.630;2023-01-20T21:17:03;11.80;;;8.05;;
59038;SDS011;44824;43.376;19.630;2023-01-20T21:19:29;12.90;;;9.35;;
59038;SDS011;44824;43.376;19.630;2023-01-20T21:22:01;10.95;;;7.10;;
59038;SDS011;44824;43.376;19.630;2023-01-20T21:24:31;13.02;;;8.65;;
59038;SDS011;44824;43.376;19.630;2023-01-20T21:26:58;12.75;;;8.02;;
59038;SDS011;44824;43.376;19.630;2023-01-20T21:29:24;11.55;;;7.63;;
59038;SDS011;44824;43.376;19.630;2023-01-20T21:31:52;9.82;;;6.43;;
59038;SDS011;44824;43.376;19.630;2023-01-20T21:34:19;11.60;;;7.20;;
59038;SDS011;44824;43.376;19.630;2023-01-20T21:36:45;13.43;;;7.28;;
59038;SDS011;44824;43.376;19.630;2023-01-20T21:39:15;12.63;;;8.38;;
59038;SDS011;44824;43.376;19.630;2023-01-20T21:41:42;15.05;;;8.07;;
59038;SDS011;44824;43.376;19.630;2023-01-20T21:44:08;13.63;;;8.82;;
59038;SDS011;44824;43.376;19.630;2023-01-20T21:46:53;16.95;;;10.43;;
59038;SDS011;44824;43.376;19.630;2023-01-20T21:49:28;11.40;;;7.22;;
59038;SDS011;44824;43.376;19.630;2023-01-20T21:52:20;11.57;;;6.97;;
59038;SDS011;44824;43.376;19.630;2023-01-20T21:55:05;12.13;;;7.68;;
59038;SDS011;44824;43.376;19.630;2023-01-20T21:59:59;16.13;;;10.23;;
59038;SDS011;44824;43.376;19.630;2023-01-20T22:02:28;15.32;;;11.52;;
59038;SDS011;44824;43.376;19.630;2023-01-20T22:04:54;11.48;;;7.93;;
59038;SDS011;44824;43.376;19.630;2023-01-20T22:07:20;11.82;;;7.75;;
59038;SDS011;44824;43.376;19.630;2023-01-20T22:09:47;12.73;;;8.43;;
59038;SDS011;44824;43.376;19.630;2023-01-20T22:12:19;16.20;;;9.60;;
59038;SDS011;44824;43.376;19.630;2023-01-20T22:15:04;11.75;;;8.27;;